Time;durP1;ratioP1;P1;durP2;ratioP2;P2;SDS_P1;SDS_P2;PMS_P1;PMS_P2;Temp;Humidity;BMP_temperature;BMP_pressure;BME280_temperature;BME280_humidity;BME280_pressure;Samples;Min_cycle;Max_cycle;Signal;HPM_P1;HPM_P2
2022/05/28 00:01:35;;;;;;;3.53;2.15;;;22.30;99.40;;;;;;5093404;28;20428;-60
2022/05/28 00:04:04;;;;;;;5.57;2.63;;;22.30;98.50;;;;;;5093735;28;20024;-61
2022/05/28 00:06:31;;;;;;;4.15;2.38;;;22.30;98.20;;;;;;5093793;28;20421;-61
2022/05/28 00:08:59;;;;;;;3.42;2.72;;;22.30;98.20;;;;;;5093396;28;20020;-61
2022/05/28 00:11:28;;;;;;;5.93;4.05;;;22.20;98.80;;;;;;5093482;28;20463;-59
2022/05/28 00:13:54;;;;;;;2.85;2.65;;;22.00;99.90;;;;;;5093473;28;20031;-60
2022/05/28 00:16:20;;;;;;;6.88;3.50;;;21.80;99.90;;;;;;5093180;28;20383;-59
2022/05/28 00:18:47;;;;;;;4.35;2.65;;;21.70;99.90;;;;;;5093557;28;20066;-61
2022/05/28 00:21:13;;;;;;;7.60;3.38;;;21.60;99.90;;;;;;5093552;28;20051;-60
2022/05/28 00:23:41;;;;;;;5.20;3.28;;;21.50;99.90;;;;;;5092927;28;20024;-60
2022/05/28 00:26:07;;;;;;;7.03;3.95;;;21.20;99.90;;;;;;5093259;28;20028;-61
2022/05/28 00:28:33;;;;;;;6.38;3.75;;;21.00;99.90;;;;;;5093174;28;20458;-60
2022/05/28 00:31:00;;;;;;;6.20;3.55;;;20.90;99.90;;;;;;5097329;28;20031;-60
2022/05/28 00:33:27;;;;;;;3.38;2.63;;;20.90;99.90;;;;;;5097192;28;20039;-61
2022/05/28 00:35:53;;;;;;;5.03;3.00;;;21.10;99.90;;;;;;5097308;28;20024;-60
2022/05/28 00:38:19;;;;;;;3.90;2.67;;;21.20;99.90;;;;;;5096929;28;20043;-60
2022/05/28 00:40:51;;;;;;;4.43;2.50;;;21.10;99.90;;;;;;5097140;28;20027;-61
2022/05/28 00:43:16;;;;;;;2.97;2.40;;;21.20;99.90;;;;;;5097223;28;20058;-60
2022/05/28 00:45:44;;;;;;;4.15;1.90;;;21.30;99.90;;;;;;5097143;28;20101;-60
2022/05/28 00:48:11;;;;;;;3.25;1.75;;;21.40;99.90;;;;;;5096965;28;20505;-60
2022/05/28 00:50:38;;;;;;;5.82;2.50;;;21.50;99.90;;;;;;5097077;28;20020;-59
2022/05/28 00:53:05;;;;;;;3.55;2.08;;;21.60;99.90;;;;;;5097234;28;20020;-61
2022/05/28 00:55:34;;;;;;;3.47;2.00;;;21.50;99.90;;;;;;5096910;28;20052;-61
2022/05/28 00:58:03;;;;;;;2.97;2.30;;;21.40;99.90;;;;;;5096734;28;20492;-60
2022/05/28 01:00:29;;;;;;;3.10;1.95;;;21.40;99.90;;;;;;5096724;28;20016;-60
2022/05/28 01:03:06;;;;;;;4.97;2.63;;;21.40;99.90;;;;;;5097015;28;20456;-59
2022/05/28 01:05:43;;;;;;;3.38;1.75;;;21.40;99.90;;;;;;5096463;28;20474;-60
2022/05/28 01:08:40;;;;;;;2.83;1.70;;;21.40;99.90;;;;;;5096921;28;20448;-60
2022/05/28 01:11:30;;;;;;;6.07;2.25;;;21.50;99.90;;;;;;5088546;28;20122;-61
2022/05/28 01:14:08;;;;;;;2.63;1.90;;;21.50;99.90;;;;;;5096823;28;20023;-60
2022/05/28 01:16:44;;;;;;;4.90;1.48;;;21.50;99.90;;;;;;5096361;28;20032;-61
2022/05/28 01:19:48;;;;;;;1.92;1.58;;;21.70;99.90;;;;;;5096559;28;20023;-61
2022/05/28 01:22:53;;;;;;;6.37;2.47;;;21.70;99.90;;;;;;5096430;28;20108;-60
2022/05/28 01:25:32;;;;;;;2.95;1.70;;;21.70;99.90;;;;;;5090214;28;20261;-61
2022/05/28 01:28:04;;;;;;;3.53;1.92;;;21.60;99.90;;;;;;5096273;28;20028;-60
2022/05/28 01:30:31;;;;;;;4.22;2.70;;;21.60;99.90;;;;;;5096249;28;20481;-60
2022/05/28 01:32:58;;;;;;;2.85;2.10;;;21.40;99.90;;;;;;5096123;28;20055;-60
2022/05/28 01:35:27;;;;;;;3.75;1.90;;;21.40;99.90;;;;;;5096185;27;20424;-61
2022/05/28 01:37:56;;;;;;;5.90;3.13;;;21.40;99.90;;;;;;5096164;28;20498;-59
2022/05/28 01:40:22;;;;;;;5.43;3.00;;;21.40;99.90;;;;;;5095812;28;20378;-60
2022/05/28 01:42:52;;;;;;;6.22;3.97;;;21.30;99.90;;;;;;5095658;28;20027;-60
2022/05/28 01:45:20;;;;;;;5.82;2.88;;;21.10;99.90;;;;;;5095954;28;20107;-60
2022/05/28 01:47:49;;;;;;;6.55;2.75;;;21.10;99.90;;;;;;5096207;27;20102;-60
2022/05/28 01:50:18;;;;;;;6.97;3.55;;;21.30;99.90;;;;;;5095947;28;20047;-60
2022/05/28 01:52:44;;;;;;;5.93;3.40;;;21.30;99.90;;;;;;5095794;28;20013;-60
2022/05/28 01:55:13;;;;;;;9.90;6.65;;;21.30;99.90;;;;;;5095892;28;20136;-61
2022/05/28 01:57:39;;;;;;;9.55;4.82;;;21.20;99.90;;;;;;5095586;28;20490;-61
2022/05/28 02:00:06;;;;;;;6.28;4.63;;;21.10;99.90;;;;;;5095909;28;20024;-61
2022/05/28 02:02:31;;;;;;;6.30;4.18;;;21.20;99.90;;;;;;5095494;28;20016;-60
2022/05/28 02:04:57;;;;;;;9.05;4.57;;;21.20;99.90;;;;;;5095361;28;20089;-60
2022/05/28 02:07:23;;;;;;;5.18;4.03;;;21.30;99.90;;;;;;5095562;28;20028;-60
2022/05/28 02:09:54;;;;;;;4.20;3.47;;;21.20;99.90;;;;;;5095586;28;20035;-60
2022/05/28 02:12:40;;;;;;;6.00;3.05;;;21.20;99.90;;;;;;5095665;28;20386;-60
2022/05/28 02:15:15;;;;;;;6.68;3.13;;;21.40;99.90;;;;;;5095702;28;20027;-60
2022/05/28 02:17:53;;;;;;;4.05;2.55;;;21.40;99.90;;;;;;5095194;28;20033;-60
2022/05/28 02:20:44;;;;;;;6.10;2.83;;;21.40;99.90;;;;;;5095066;28;20031;-60
2022/05/28 02:23:32;;;;;;;3.28;2.00;;;21.20;99.90;;;;;;5095317;28;20066;-60
2022/05/28 02:26:09;;;;;;;4.78;2.42;;;21.20;99.90;;;;;;5095045;28;20046;-60
2022/05/28 02:28:36;;;;;;;2.25;1.90;;;21.10;99.90;;;;;;5095286;28;20031;-61
2022/05/28 02:31:12;;;;;;;3.03;1.90;;;21.10;99.90;;;;;;5094929;28;20062;-60
2022/05/28 02:33:38;;;;;;;2.53;1.95;;;21.10;99.90;;;;;;5094993;28;20043;-60
2022/05/28 02:36:04;;;;;;;3.20;1.30;;;20.90;99.90;;;;;;5094933;27;20020;-59
2022/05/28 02:38:30;;;;;;;4.72;1.40;;;20.80;99.90;;;;;;5094748;28;20115;-60
2022/05/28 02:40:56;;;;;;;4.68;1.52;;;20.80;99.90;;;;;;5094907;28;20028;-60
2022/05/28 02:43:25;;;;;;;2.20;0.95;;;20.70;99.90;;;;;;5094749;28;20016;-61
2022/05/28 02:45:50;;;;;;;1.42;0.80;;;20.70;99.90;;;;;;5094693;28;20085;-60
2022/05/28 02:48:16;;;;;;;2.10;0.90;;;20.80;99.90;;;;;;5094579;28;20024;-60
2022/05/28 02:50:42;;;;;;;2.00;1.00;;;20.90;99.90;;;;;;5094735;28;20016;-60
2022/05/28 02:53:08;;;;;;;3.03;0.90;;;20.90;99.90;;;;;;5094830;28;20063;-60
2022/05/28 02:55:34;;;;;;;0.60;0.60;;;21.00;99.90;;;;;;5094583;28;20043;-60
2022/05/28 02:58:00;;;;;;;2.38;0.80;;;21.10;99.90;;;;;;5094463;28;20031;-60
2022/05/28 03:00:26;;;;;;;0.50;0.50;;;21.10;99.90;;;;;;5094850;28;20512;-60
2022/05/28 03:02:52;;;;;;;1.05;0.60;;;21.10;99.90;;;;;;5094555;28;20081;-61
2022/05/28 03:05:20;;;;;;;0.70;0.60;;;21.10;99.90;;;;;;5094556;28;20043;-59
2022/05/28 03:07:46;;;;;;;1.75;0.90;;;21.10;99.70;;;;;;5094759;28;20464;-60
2022/05/28 03:10:12;;;;;;;0.77;0.50;;;21.00;99.70;;;;;;5094204;28;20098;-59
2022/05/28 03:12:39;;;;;;;0.68;0.60;;;21.00;99.80;;;;;;5094285;28;20020;-60
2022/05/28 03:15:06;;;;;;;1.85;0.68;;;21.10;99.50;;;;;;5094563;28;20055;-59
2022/05/28 03:17:32;;;;;;;1.50;0.65;;;21.10;99.60;;;;;;5094088;28;20043;-60
2022/05/28 03:20:00;;;;;;;0.88;0.50;;;21.10;99.30;;;;;;5094367;28;20414;-60
2022/05/28 03:22:26;;;;;;;1.05;0.40;;;21.10;99.30;;;;;;5094085;27;20463;-60
2022/05/28 03:24:52;;;;;;;0.85;0.40;;;21.20;98.80;;;;;;5093973;28;20382;-60
2022/05/28 03:27:17;;;;;;;2.35;0.52;;;21.20;98.90;;;;;;5093987;28;20046;-60
2022/05/28 03:29:43;;;;;;;1.65;0.85;;;21.20;99.10;;;;;;5093961;28;20024;-60
2022/05/28 03:32:09;;;;;;;0.73;0.60;;;21.10;99.70;;;;;;5093612;28;20031;-60
2022/05/28 03:34:35;;;;;;;1.23;0.75;;;20.90;99.90;;;;;;5093950;28;20020;-60
2022/05/28 03:37:00;;;;;;;1.10;0.60;;;20.90;99.90;;;;;;5094043;28;20470;-60
2022/05/28 03:39:26;;;;;;;0.50;0.50;;;21.00;99.90;;;;;;5093731;28;20153;-60
2022/05/28 03:41:52;;;;;;;1.15;0.50;;;21.10;99.90;;;;;;5093886;28;20065;-60
2022/05/28 03:44:17;;;;;;;0.40;0.40;;;21.10;99.50;;;;;;5093832;28;20024;-60
2022/05/28 03:46:43;;;;;;;1.60;0.50;;;21.20;99.40;;;;;;5093542;28;20028;-60
2022/05/28 03:49:22;;;;;;;1.02;0.60;;;21.20;99.20;;;;;;5093647;28;20510;-60
2022/05/28 03:51:49;;;;;;;0.45;0.40;;;21.20;99.60;;;;;;5093731;28;20065;-60
2022/05/28 03:54:15;;;;;;;0.50;0.50;;;21.20;99.50;;;;;;5093579;28;20475;-60
2022/05/28 03:56:42;;;;;;;0.95;0.60;;;21.20;99.50;;;;;;5093279;28;20036;-60
2022/05/28 03:59:09;;;;;;;0.90;0.52;;;21.30;99.30;;;;;;5093531;28;20058;-61
2022/05/28 04:01:35;;;;;;;1.42;0.60;;;21.30;98.60;;;;;;5093484;28;20021;-60
2022/05/28 04:04:01;;;;;;;1.08;0.70;;;21.20;97.60;;;;;;5093341;28;20050;-59
2022/05/28 04:06:27;;;;;;;0.70;0.60;;;21.00;98.00;;;;;;5093454;28;20099;-60
2022/05/28 04:08:53;;;;;;;1.38;0.63;;;21.00;98.20;;;;;;5093411;28;20104;-60
2022/05/28 04:11:19;;;;;;;1.10;0.40;;;21.00;98.00;;;;;;5093375;28;20021;-61
2022/05/28 04:13:45;;;;;;;1.80;0.50;;;21.10;98.30;;;;;;5093390;28;20023;-60
2022/05/28 04:16:11;;;;;;;0.40;0.40;;;21.20;98.20;;;;;;5093228;28;20386;-59
2022/05/28 04:18:37;;;;;;;0.80;0.50;;;21.10;98.00;;;;;;5093491;28;20086;-60
2022/05/28 04:21:03;;;;;;;1.30;0.80;;;21.10;98.30;;;;;;5093577;28;20016;-60
2022/05/28 04:23:28;;;;;;;0.98;0.60;;;21.10;98.00;;;;;;5093554;28;20024;-60
2022/05/28 04:25:54;;;;;;;1.13;0.60;;;21.10;98.20;;;;;;5093172;28;20076;-60
2022/05/28 04:28:20;;;;;;;1.15;0.50;;;21.10;98.20;;;;;;5093533;28;20076;-60
2022/05/28 04:30:46;;;;;;;0.75;0.50;;;21.20;98.10;;;;;;5093043;28;20039;-60
2022/05/28 04:33:12;;;;;;;1.50;0.50;;;21.30;98.30;;;;;;5093000;28;20020;-60
2022/05/28 04:35:37;;;;;;;0.80;0.50;;;21.40;98.20;;;;;;5093176;28;20087;-60
2022/05/28 04:38:03;;;;;;;0.70;0.45;;;21.40;97.70;;;;;;5093347;28;20033;-60
2022/05/28 04:40:29;;;;;;;1.65;0.63;;;21.40;97.50;;;;;;5093328;28;20031;-59
2022/05/28 04:42:55;;;;;;;1.00;0.40;;;21.50;97.30;;;;;;5093622;28;20032;-60
2022/05/28 04:45:21;;;;;;;0.40;0.40;;;21.50;96.70;;;;;;5093082;28;20024;-60
2022/05/28 04:47:46;;;;;;;0.45;0.30;;;21.40;97.20;;;;;;5093074;28;20061;-61
2022/05/28 04:50:13;;;;;;;0.60;0.40;;;21.50;96.60;;;;;;5093685;28;20028;-60
2022/05/28 04:52:39;;;;;;;1.30;0.50;;;21.50;96.50;;;;;;5093011;28;20493;-60
2022/05/28 04:55:06;;;;;;;0.73;0.40;;;21.40;97.00;;;;;;5093067;28;20044;-60
2022/05/28 04:57:32;;;;;;;1.00;0.40;;;21.40;96.50;;;;;;5092792;28;20425;-60
2022/05/28 04:59:58;;;;;;;0.60;0.40;;;21.40;96.80;;;;;;5092926;28;20054;-60
2022/05/28 05:02:24;;;;;;;0.45;0.40;;;21.50;96.60;;;;;;5092918;28;20025;-61
2022/05/28 05:04:57;;;;;;;0.95;0.50;;;21.50;96.70;;;;;;5092847;28;20020;-60
2022/05/28 05:07:24;;;;;;;0.50;0.40;;;21.60;96.40;;;;;;5093206;28;20390;-61
2022/05/28 05:09:50;;;;;;;2.20;0.60;;;21.60;96.30;;;;;;5092873;28;20059;-60
2022/05/28 05:12:16;;;;;;;0.90;0.30;;;21.50;96.50;;;;;;5092851;28;20020;-60
2022/05/28 05:14:41;;;;;;;1.63;0.50;;;21.50;96.40;;;;;;5093077;28;20027;-60
2022/05/28 05:17:07;;;;;;;1.08;0.50;;;21.60;96.30;;;;;;5095428;28;20032;-60
2022/05/28 05:19:33;;;;;;;0.50;0.50;;;21.70;96.20;;;;;;5096381;28;20039;-60
2022/05/28 05:21:58;;;;;;;1.33;0.45;;;21.80;96.10;;;;;;5096413;28;20016;-61
2022/05/28 05:24:24;;;;;;;0.73;0.45;;;21.90;95.30;;;;;;5096704;28;20047;-61
2022/05/28 05:26:50;;;;;;;1.65;0.45;;;21.90;95.50;;;;;;5095963;28;20025;-60
2022/05/28 05:29:16;;;;;;;0.40;0.38;;;22.00;95.30;;;;;;5096323;28;20048;-60
2022/05/28 05:31:42;;;;;;;0.57;0.40;;;22.10;95.00;;;;;;5096760;28;20016;-60
2022/05/28 05:34:08;;;;;;;0.25;0.25;;;22.20;94.70;;;;;;5096052;28;20192;-59
2022/05/28 05:36:34;;;;;;;1.90;0.55;;;22.20;95.00;;;;;;5096008;28;20024;-59
2022/05/28 05:39:00;;;;;;;0.88;0.40;;;22.30;94.70;;;;;;5096121;28;20088;-60
2022/05/28 05:41:25;;;;;;;0.50;0.40;;;22.30;94.20;;;;;;5095819;28;20024;-60
2022/05/28 05:43:51;;;;;;;2.17;0.50;;;22.40;94.60;;;;;;5095957;28;20020;-60
2022/05/28 05:46:17;;;;;;;1.02;0.30;;;22.50;95.00;;;;;;5096027;28;20050;-60
2022/05/28 05:48:43;;;;;;;0.73;0.38;;;22.60;94.80;;;;;;5095837;28;20039;-60
2022/05/28 05:51:12;;;;;;;0.30;0.30;;;22.60;94.70;;;;;;5096057;28;20025;-60
2022/05/28 05:53:39;;;;;;;0.65;0.40;;;22.50;93.20;;;;;;5096116;28;20554;-60
2022/05/28 05:56:05;;;;;;;0.40;0.38;;;22.40;93.30;;;;;;5095376;28;20048;-60
2022/05/28 05:58:31;;;;;;;1.25;0.60;;;22.30;92.90;;;;;;5095592;28;20082;-61
2022/05/28 06:00:57;;;;;;;0.80;0.45;;;22.30;92.70;;;;;;5095669;28;20024;-60
2022/05/28 06:03:23;;;;;;;2.45;0.60;;;22.00;93.00;;;;;;5095611;28;20054;-60
2022/05/28 06:05:48;;;;;;;1.13;0.80;;;21.80;92.90;;;;;;5095805;28;20112;-61
2022/05/28 06:08:17;;;;;;;0.90;0.80;;;21.70;93.20;;;;;;5095657;28;20441;-60
2022/05/28 06:10:44;;;;;;;0.77;0.50;;;21.60;93.50;;;;;;5095606;28;20356;-60
2022/05/28 06:13:09;;;;;;;0.77;0.70;;;21.70;94.10;;;;;;5095381;28;20012;-61
2022/05/28 06:15:35;;;;;;;2.20;0.77;;;21.80;94.20;;;;;;5095639;28;20081;-60
2022/05/28 06:18:01;;;;;;;1.33;0.90;;;21.80;93.10;;;;;;5095305;28;20024;-60
2022/05/28 06:20:27;;;;;;;2.03;0.70;;;21.80;93.00;;;;;;5095473;28;20031;-60
2022/05/28 06:22:52;;;;;;;0.88;0.55;;;21.70;93.60;;;;;;5095368;28;20508;-60
2022/05/28 06:25:18;;;;;;;0.60;0.57;;;21.90;94.30;;;;;;5094965;28;20024;-60
2022/05/28 06:27:46;;;;;;;0.65;0.60;;;21.90;94.60;;;;;;5094870;28;20020;-59
2022/05/28 06:30:12;;;;;;;1.17;0.40;;;22.10;94.60;;;;;;5095231;28;20028;-60
2022/05/28 06:32:38;;;;;;;0.80;0.60;;;22.30;93.40;;;;;;5094990;28;20718;-60
2022/05/28 06:35:04;;;;;;;0.45;0.45;;;22.40;93.00;;;;;;5095090;28;20029;-60
2022/05/28 06:37:29;;;;;;;2.03;0.75;;;22.40;92.90;;;;;;5094808;28;20032;-60
2022/05/28 06:39:55;;;;;;;1.77;0.60;;;22.50;92.50;;;;;;5094719;28;20020;-60
2022/05/28 06:42:21;;;;;;;1.65;0.50;;;22.50;92.20;;;;;;5094934;28;20531;-60
2022/05/28 06:44:46;;;;;;;1.05;0.47;;;22.50;92.10;;;;;;5094817;28;20026;-60
2022/05/28 06:47:12;;;;;;;0.43;0.38;;;22.50;92.30;;;;;;5094864;28;20497;-60
2022/05/28 06:49:38;;;;;;;0.77;0.50;;;22.60;92.50;;;;;;5094869;28;20027;-59
2022/05/28 06:52:04;;;;;;;2.03;0.55;;;22.60;91.70;;;;;;5094615;28;20385;-60
2022/05/28 06:54:30;;;;;;;0.95;0.60;;;22.50;92.40;;;;;;5094756;28;20034;-60
2022/05/28 06:56:55;;;;;;;0.90;0.50;;;22.60;92.40;;;;;;5094360;28;20395;-61
2022/05/28 06:59:21;;;;;;;0.80;0.52;;;22.80;92.50;;;;;;5094527;28;20380;-60
2022/05/28 07:01:47;;;;;;;0.40;0.40;;;22.80;92.10;;;;;;5094466;28;20378;-60
2022/05/28 07:04:13;;;;;;;1.05;0.50;;;22.90;92.20;;;;;;5094477;28;20020;-59
2022/05/28 07:06:38;;;;;;;0.95;0.60;;;22.90;91.90;;;;;;5094432;28;20027;-60
2022/05/28 07:09:07;;;;;;;1.90;0.60;;;22.90;92.10;;;;;;5094149;28;20020;-60
2022/05/28 07:11:33;;;;;;;1.65;0.68;;;22.80;92.00;;;;;;5094433;28;20429;-60
2022/05/28 07:13:59;;;;;;;1.42;0.80;;;22.80;92.70;;;;;;5094304;28;20028;-61
2022/05/28 07:16:25;;;;;;;0.88;0.60;;;22.70;92.50;;;;;;5094178;28;20020;-60
2022/05/28 07:18:50;;;;;;;1.02;0.80;;;22.80;92.50;;;;;;5094099;28;20166;-61
2022/05/28 07:21:16;;;;;;;0.68;0.68;;;22.80;92.30;;;;;;5094221;28;20429;-61
2022/05/28 07:23:42;;;;;;;1.23;0.50;;;22.80;92.40;;;;;;5093727;28;20032;-60
2022/05/28 07:26:15;;;;;;;2.60;0.90;;;22.80;92.80;;;;;;5094077;28;20028;-59
2022/05/28 07:28:42;;;;;;;1.23;0.80;;;22.80;92.80;;;;;;5094087;28;20024;-60
2022/05/28 07:31:11;;;;;;;5.57;0.77;;;22.90;92.30;;;;;;5094193;28;20028;-60
2022/05/28 07:33:39;;;;;;;1.77;0.77;;;22.90;92.60;;;;;;5093977;28;20047;-59
2022/05/28 07:36:07;;;;;;;2.38;0.70;;;22.90;92.30;;;;;;5093988;28;20471;-60
2022/05/28 07:38:34;;;;;;;2.72;1.17;;;23.00;92.30;;;;;;5092798;28;20028;-60
2022/05/28 07:41:05;;;;;;;1.83;0.68;;;23.00;92.90;;;;;;5094018;28;20012;-60
2022/05/28 07:43:32;;;;;;;1.98;0.90;;;23.00;92.40;;;;;;5093808;28;20091;-59
2022/05/28 07:45:58;;;;;;;0.70;0.70;;;23.00;92.60;;;;;;5093695;28;20402;-61
2022/05/28 07:48:24;;;;;;;1.05;0.73;;;23.10;92.70;;;;;;5093675;28;20013;-60
2022/05/28 07:50:50;;;;;;;0.40;0.40;;;23.10;92.40;;;;;;5093680;28;20026;-59
2022/05/28 07:53:15;;;;;;;1.20;0.63;;;23.00;92.20;;;;;;5093690;28;20020;-60
2022/05/28 07:55:41;;;;;;;0.80;0.60;;;23.00;92.00;;;;;;5093361;28;20132;-60
2022/05/28 07:58:15;;;;;;;1.10;0.75;;;23.10;91.70;;;;;;5126274;27;20032;-60
2022/05/28 08:00:45;;;;;;;0.73;0.73;;;23.00;92.20;;;;;;5093432;28;20044;-60
2022/05/28 08:03:12;;;;;;;1.45;0.50;;;23.00;92.80;;;;;;5093497;28;20035;-61
2022/05/28 08:05:41;;;;;;;1.77;0.68;;;22.90;92.20;;;;;;5093484;28;20050;-60
2022/05/28 08:08:07;;;;;;;3.00;1.52;;;22.90;92.10;;;;;;5093376;28;20031;-60
2022/05/28 08:10:33;;;;;;;3.13;1.20;;;22.80;92.40;;;;;;5093691;28;20119;-59
2022/05/28 08:13:07;;;;;;;1.73;0.90;;;22.50;92.70;;;;;;5093676;28;20471;-60
2022/05/28 08:15:35;;;;;;;1.00;0.80;;;22.40;92.90;;;;;;5093387;28;20020;-60
2022/05/28 08:18:02;;;;;;;0.82;0.75;;;22.30;93.10;;;;;;5093264;27;20028;-60
2022/05/28 08:23:12;;;;;;;1.25;0.90;;;22.40;93.60;;;;;;5093142;28;20024;-60
2022/05/28 08:25:39;;;;;;;1.75;0.80;;;22.40;92.80;;;;;;5093326;28;20390;-60
2022/05/28 08:28:07;;;;;;;4.32;1.05;;;22.50;93.20;;;;;;5093231;28;20077;-60
2022/05/28 08:30:33;;;;;;;1.00;0.70;;;22.50;92.90;;;;;;5093709;28;20028;-59
2022/05/28 08:32:59;;;;;;;1.20;0.80;;;22.50;92.80;;;;;;5093167;28;20017;-60
2022/05/28 08:35:25;;;;;;;1.50;0.90;;;22.60;92.80;;;;;;5093032;28;20035;-60
2022/05/28 08:37:50;;;;;;;0.88;0.70;;;22.70;92.90;;;;;;5093139;28;20413;-60
2022/05/28 08:40:16;;;;;;;0.80;0.70;;;22.80;92.70;;;;;;5093256;28;20016;-60
2022/05/28 08:42:43;;;;;;;1.30;0.77;;;22.90;92.50;;;;;;5093063;28;20021;-60
2022/05/28 08:45:13;;;;;;;1.20;0.70;;;22.90;92.10;;;;;;5093418;28;20028;-60
2022/05/28 08:47:43;;;;;;;1.92;0.70;;;22.80;92.10;;;;;;5093114;28;20016;-61
2022/05/28 08:50:10;;;;;;;2.92;1.08;;;22.60;92.10;;;;;;5093885;28;20028;-60
2022/05/28 08:52:52;;;;;;;1.00;0.70;;;22.60;92.20;;;;;;5097100;28;20024;-60
2022/05/28 08:55:25;;;;;;;1.38;0.80;;;22.60;91.50;;;;;;5096906;28;20044;-59
2022/05/28 08:58:03;;;;;;;1.65;0.60;;;22.40;90.80;;;;;;5097028;28;20093;-60
2022/05/28 09:00:45;;;;;;;1.35;0.57;;;22.20;91.10;;;;;;5096822;28;20028;-61
2022/05/28 09:03:18;;;;;;;1.75;0.90;;;22.10;90.90;;;;;;5096855;28;20023;-60
2022/05/28 09:06:05;;;;;;;1.10;0.63;;;22.00;91.10;;;;;;5096813;28;20036;-60
2022/05/28 09:08:49;;;;;;;0.50;0.50;;;22.00;91.10;;;;;;5096776;28;20028;-59
2022/05/28 09:11:37;;;;;;;;;;;21.90;91.30;;;;;;5097125;28;20095;-60
2022/05/28 09:14:25;;;;;;;3.05;0.80;;;21.80;91.60;;;;;;5093187;28;20405;-60
2022/05/28 09:17:20;;;;;;;1.02;0.68;;;21.80;90.90;;;;;;5096490;28;20020;-60
2022/05/28 09:19:48;;;;;;;1.73;0.57;;;21.70;90.90;;;;;;5096311;28;20032;-60
2022/05/28 09:22:15;;;;;;;0.75;0.50;;;21.70;90.70;;;;;;5096613;28;20032;-60
2022/05/28 09:24:42;;;;;;;0.70;0.60;;;21.70;90.70;;;;;;5096286;28;20105;-60
2022/05/28 09:27:26;;;;;;;1.60;0.73;;;21.70;90.80;;;;;;5096658;28;20075;-59
2022/05/28 09:30:24;;;;;;;0.73;0.70;;;21.60;90.70;;;;;;5096221;28;20024;-60
2022/05/28 09:33:01;;;;;;;0.73;0.68;;;21.50;91.30;;;;;;5096496;28;20035;-60
2022/05/28 09:35:55;;;;;;;2.65;1.10;;;21.60;91.40;;;;;;5096146;28;20051;-60
2022/05/28 09:38:27;;;;;;;;;;;21.60;91.30;;;;;;5096434;28;20024;-60
2022/05/28 09:41:02;;;;;;;1.23;0.73;;;21.50;91.50;;;;;;5094837;28;20011;-60
2022/05/28 09:43:46;;;;;;;1.67;0.80;;;21.40;91.40;;;;;;5095949;28;20030;-60
2022/05/28 09:46:34;;;;;;;1.67;0.70;;;21.40;91.60;;;;;;5096089;28;20471;-60
2022/05/28 09:49:10;;;;;;;2.25;0.80;;;21.40;91.10;;;;;;5095991;28;20093;-60
2022/05/28 09:51:36;;;;;;;1.50;0.60;;;21.40;91.60;;;;;;5095938;28;20107;-60
2022/05/28 09:54:18;;;;;;;1.00;0.90;;;21.40;91.40;;;;;;5095711;28;20497;-60
2022/05/28 09:56:53;;;;;;;2.15;0.60;;;21.20;91.20;;;;;;5095601;28;20069;-60
2022/05/28 09:59:21;;;;;;;1.50;0.80;;;21.20;91.50;;;;;;5095686;28;20036;-60
2022/05/28 10:01:53;;;;;;;0.88;0.73;;;21.20;91.50;;;;;;5094947;28;20103;-60
2022/05/28 10:04:31;;;;;;;0.88;0.80;;;21.20;91.50;;;;;;5095460;27;20471;-61
2022/05/28 10:07:03;;;;;;;0.95;0.77;;;21.30;91.30;;;;;;5095863;28;20150;-60
2022/05/28 10:09:34;;;;;;;1.63;0.60;;;21.30;91.90;;;;;;5095551;28;20038;-61
2022/05/28 10:12:16;;;;;;;0.60;0.60;;;21.20;91.50;;;;;;5095481;28;20016;-60
2022/05/28 10:14:41;;;;;;;1.35;0.70;;;21.10;91.50;;;;;;5095449;28;20024;-60
2022/05/28 10:17:08;;;;;;;1.33;0.70;;;21.10;92.00;;;;;;5095144;28;20039;-60
2022/05/28 10:19:43;;;;;;;0.60;0.52;;;20.90;91.50;;;;;;5095322;28;20074;-60
2022/05/28 10:22:18;;;;;;;2.13;0.93;;;20.90;91.70;;;;;;5095222;28;20024;-59
2022/05/28 10:24:51;;;;;;;1.00;0.85;;;20.90;91.40;;;;;;5095498;28;20051;-59
2022/05/28 10:27:49;;;;;;;2.28;0.90;;;20.80;91.10;;;;;;5095334;28;20024;-60
2022/05/28 10:30:25;;;;;;;2.28;0.80;;;20.70;90.80;;;;;;5095433;28;20160;-60
2022/05/28 10:32:52;;;;;;;1.30;0.90;;;20.70;90.60;;;;;;5094898;28;20073;-60
2022/05/28 10:35:27;;;;;;;1.35;0.90;;;20.70;90.30;;;;;;5095275;27;20028;-61
2022/05/28 10:38:11;;;;;;;2.45;0.85;;;20.60;90.30;;;;;;5095006;28;20496;-60
2022/05/28 10:40:52;;;;;;;0.95;0.80;;;20.60;90.20;;;;;;5094912;28;20047;-60
2022/05/28 10:43:26;;;;;;;0.63;0.63;;;20.50;90.60;;;;;;5095024;28;20016;-60
2022/05/28 10:46:13;;;;;;;1.00;0.60;;;20.40;90.60;;;;;;5094594;28;20028;-60
2022/05/28 10:48:41;;;;;;;1.63;0.60;;;20.40;90.30;;;;;;5094770;28;20043;-60
2022/05/28 10:51:20;;;;;;;1.55;0.73;;;20.30;89.80;;;;;;5094682;28;20099;-60
2022/05/28 10:54:07;;;;;;;1.15;0.60;;;20.30;90.20;;;;;;5094794;28;20020;-61
2022/05/28 10:56:51;;;;;;;1.42;0.70;;;20.20;90.10;;;;;;5094405;28;20048;-60
2022/05/28 10:59:29;;;;;;;1.88;0.90;;;20.20;90.50;;;;;;5094529;28;20028;-60
2022/05/28 11:02:04;;;;;;;1.17;1.00;;;19.90;90.40;;;;;;5094411;28;20379;-59
2022/05/28 11:04:56;;;;;;;6.18;1.70;;;19.70;90.90;;;;;;5094487;28;20023;-60
2022/05/28 11:07:27;;;;;;;1.65;0.93;;;19.80;90.90;;;;;;5094434;28;20028;-60
2022/05/28 11:09:58;;;;;;;3.03;1.05;;;19.60;91.60;;;;;;5094286;28;20034;-60
2022/05/28 11:12:38;;;;;;;2.40;0.90;;;19.70;92.10;;;;;;5094342;28;20051;-61
2022/05/28 11:15:28;;;;;;;1.10;0.90;;;19.70;92.50;;;;;;5093195;28;20024;-60
2022/05/28 11:18:18;;;;;;;0.90;0.70;;;19.80;92.30;;;;;;5094232;28;20394;-60
2022/05/28 11:21:29;;;;;;;0.90;0.73;;;19.80;92.00;;;;;;5094257;28;20063;-60
2022/05/28 11:24:45;;;;;;;1.30;0.85;;;19.80;92.00;;;;;;5080967;28;20039;-60
2022/05/28 11:27:35;;;;;;;0.80;0.65;;;19.70;91.70;;;;;;5094213;28;20103;-61
2022/05/28 11:30:06;;;;;;;0.93;0.80;;;19.70;92.10;;;;;;5093795;28;20527;-60
2022/05/28 11:32:43;;;;;;;1.80;0.93;;;19.70;92.50;;;;;;5094175;28;20020;-60
2022/05/28 11:35:43;;;;;;;0.75;0.60;;;19.70;92.40;;;;;;5093816;28;20024;-60
2022/05/28 11:38:11;;;;;;;0.70;0.70;;;19.70;92.90;;;;;;5093798;28;20024;-61
2022/05/28 11:41:03;;;;;;;0.65;0.63;;;19.70;92.00;;;;;;5093763;28;20047;-60
2022/05/28 11:43:55;;;;;;;1.95;1.00;;;19.80;92.40;;;;;;5093927;28;20077;-60
2022/05/28 11:46:44;;;;;;;1.00;0.77;;;19.90;91.00;;;;;;5093805;28;20023;-60
2022/05/28 11:52:34;;;;;;;0.80;0.70;;;19.80;89.00;;;;;;5093604;28;20566;-60
2022/05/28 11:55:10;;;;;;;0.80;0.77;;;19.60;90.90;;;;;;5093387;28;20104;-60
2022/05/28 11:57:39;;;;;;;1.83;0.70;;;19.50;90.80;;;;;;5093803;28;20035;-60
2022/05/28 12:00:07;;;;;;;1.30;0.70;;;19.50;90.70;;;;;;5093411;28;20031;-60
2022/05/28 12:02:39;;;;;;;1.05;0.70;;;19.50;90.50;;;;;;5093477;28;20016;-59
2022/05/28 12:05:16;;;;;;;0.73;0.50;;;19.60;90.30;;;;;;5093410;28;20081;-60
2022/05/28 12:07:44;;;;;;;1.75;0.60;;;19.70;90.50;;;;;;5113810;28;20016;-60
2022/05/28 12:10:28;;;;;;;0.65;0.55;;;19.90;91.00;;;;;;5113793;28;20378;-60
2022/05/28 12:13:00;;;;;;;0.98;0.82;;;20.10;90.70;;;;;;5113849;28;20166;-59
2022/05/28 12:15:29;;;;;;;1.40;0.70;;;20.30;90.60;;;;;;5113781;28;20043;-59
2022/05/28 12:18:22;;;;;;;0.93;0.80;;;20.30;90.20;;;;;;5113768;28;20024;-60
2022/05/28 12:20:52;;;;;;;0.80;0.70;;;20.40;89.30;;;;;;5108200;28;20038;-60
2022/05/28 12:23:34;;;;;;;0.80;0.70;;;20.30;89.60;;;;;;5113696;28;20366;-60
2022/05/28 12:26:03;;;;;;;1.30;0.60;;;20.20;89.20;;;;;;5116513;28;20466;-59
2022/05/28 12:28:43;;;;;;;1.77;0.68;;;20.10;89.50;;;;;;5117643;28;20424;-60
2022/05/28 12:31:26;;;;;;;1.52;0.80;;;20.10;89.40;;;;;;5118014;28;20023;-60
2022/05/28 12:33:55;;;;;;;0.95;0.70;;;20.10;89.10;;;;;;5117628;28;20024;-60
2022/05/28 12:36:43;;;;;;;0.90;0.75;;;20.10;88.50;;;;;;5117953;28;20094;-60
2022/05/28 12:39:40;;;;;;;3.15;1.00;;;20.10;88.70;;;;;;5117714;28;20546;-60
2022/05/28 12:42:23;;;;;;;4.47;1.05;;;19.80;87.30;;;;;;5117464;28;20028;-60
2022/05/28 12:44:51;;;;;;;2.05;0.82;;;19.30;87.40;;;;;;5117500;28;20038;-60
2022/05/28 12:47:28;;;;;;;1.17;0.80;;;19.30;88.80;;;;;;5117668;28;20026;-60
2022/05/28 12:50:06;;;;;;;1.05;0.70;;;19.30;90.60;;;;;;5117463;28;20043;-60
2022/05/28 12:52:58;;;;;;;0.50;0.50;;;19.30;89.20;;;;;;5117526;28;20028;-60
2022/05/28 12:55:33;;;;;;;0.65;0.63;;;19.40;89.50;;;;;;5109714;28;20035;-60
2022/05/28 12:58:11;;;;;;;0.75;0.50;;;19.50;88.10;;;;;;5117125;28;20462;-60
2022/05/28 13:00:51;;;;;;;0.47;0.47;;;19.60;87.20;;;;;;5117208;28;20527;-60
2022/05/28 13:03:19;;;;;;;0.98;0.52;;;19.70;85.30;;;;;;5117541;28;20031;-61
2022/05/28 13:05:53;;;;;;;0.55;0.30;;;19.70;87.40;;;;;;5117074;28;20027;-60
2022/05/28 13:08:31;;;;;;;2.03;0.70;;;19.70;84.90;;;;;;5117458;28;20117;-60
2022/05/28 13:11:18;;;;;;;1.02;0.60;;;19.80;86.90;;;;;;5116784;28;20481;-59
2022/05/28 13:14:02;;;;;;;1.30;0.55;;;19.70;84.10;;;;;;5117356;28;20385;-60
2022/05/28 13:16:52;;;;;;;0.85;0.50;;;19.80;87.20;;;;;;5117124;28;20032;-59